createdAt,value
2023-01-29T00:01:53.164Z,101253.91
2023-01-29T00:04:59.115Z,101277.81
2023-01-29T00:08:02.533Z,101261.03
2023-01-29T00:11:09.021Z,101265.44
2023-01-29T00:14:12.628Z,101262.78
2023-01-29T00:17:16.323Z,101274.31
2023-01-29T00:20:20.099Z,101277.87
2023-01-29T00:23:25.323Z,101274.34
2023-01-29T00:26:29.460Z,101277.87
2023-01-29T00:29:32.906Z,101269.91
2023-01-29T00:32:36.510Z,101269.91
2023-01-29T00:35:41.151Z,101286.69
2023-01-29T00:38:44.503Z,101292.00
2023-01-29T00:42:06.564Z,101286.69
2023-01-29T00:45:11.538Z,101291.06
2023-01-29T00:48:14.920Z,101300.75
2023-01-29T00:51:19.602Z,101292.81
2023-01-29T00:54:23.334Z,101294.59
2023-01-29T00:57:29.282Z,101289.28
2023-01-29T01:00:33.701Z,101297.25
2023-01-29T01:03:42.502Z,101293.78
2023-01-29T01:06:47.771Z,101292.03
2023-01-29T01:10:09.493Z,101297.34
2023-01-29T01:13:13.108Z,101305.31
2023-01-29T01:16:18.909Z,101297.34
2023-01-29T01:19:22.559Z,101300.00
2023-01-29T01:22:26.100Z,101302.63
2023-01-29T01:25:29.726Z,101308.84
2023-01-29T01:28:33.091Z,101311.47
2023-01-29T01:31:36.899Z,101312.38
2023-01-29T01:34:40.811Z,101309.72
2023-01-29T01:37:44.704Z,101298.22
2023-01-29T01:40:48.132Z,101303.53
2023-01-29T01:43:55.834Z,101301.75
2023-01-29T01:47:01.989Z,101296.47
2023-01-29T01:50:16.117Z,101302.63
2023-01-29T01:53:26.854Z,101302.66
2023-01-29T01:56:40.621Z,101295.56
2023-01-29T01:59:50.568Z,101304.41
2023-01-29T02:03:13.947Z,101268.13
2023-01-29T02:06:36.559Z,101319.44
2023-01-29T02:09:46.853Z,101315.03
2023-01-29T02:12:51.624Z,101330.09
2023-01-29T02:15:54.897Z,101338.03
2023-01-29T02:18:59.818Z,101327.41
2023-01-29T02:22:29.384Z,101327.44
2023-01-29T02:25:48.991Z,101323.88
2023-01-29T02:28:56.798Z,101325.66
2023-01-29T02:32:29.435Z,101325.59
2023-01-29T02:35:39.407Z,101338.03
2023-01-29T02:39:02.108Z,101336.25
2023-01-29T02:42:35.984Z,101344.19
2023-01-29T02:45:53.707Z,101339.75
2023-01-29T02:49:05.872Z,101338.87
2023-01-29T02:52:18.580Z,101343.34
2023-01-29T02:55:30.071Z,101344.22
2023-01-29T02:58:47.914Z,101345.13
2023-01-29T03:02:05.510Z,101342.47
2023-01-29T03:05:17.711Z,101343.38
2023-01-29T03:08:37.354Z,101349.56
2023-01-29T03:11:45.988Z,101350.44
2023-01-29T03:15:11.324Z,101350.44
2023-01-29T03:18:19.748Z,101353.94
2023-01-29T03:21:48.949Z,101361.03
2023-01-29T03:25:20.850Z,101359.28
2023-01-29T03:28:43.484Z,101360.16
2023-01-29T03:32:06.997Z,101361.91
2023-01-29T03:35:13.248Z,101353.06
2023-01-29T03:38:17.322Z,101363.69
2023-01-29T03:41:31.543Z,101361.03
2023-01-29T03:44:48.927Z,101371.66
2023-01-29T03:48:00.952Z,101364.56
2023-01-29T03:51:26.476Z,101369.00
2023-01-29T03:54:44.385Z,101364.59
2023-01-29T03:58:00.020Z,101362.81
2023-01-29T04:01:14.775Z,101366.34
2023-01-29T04:04:27.077Z,101363.66
2023-01-29T04:07:33.500Z,101364.56
2023-01-29T04:10:41.557Z,101361.91
2023-01-29T04:13:47.031Z,101366.34
2023-01-29T04:16:56.103Z,101364.56
2023-01-29T04:20:01.753Z,101366.31
2023-01-29T04:23:07.540Z,101367.22
2023-01-29T04:26:37.850Z,101367.22
2023-01-29T04:30:06.763Z,101365.41
2023-01-29T04:33:20.138Z,101342.41
2023-01-29T04:37:07.798Z,101361.88
2023-01-29T04:40:24.012Z,101364.53
2023-01-29T04:43:56.969Z,101376.94
2023-01-29T04:47:18.935Z,101381.38
2023-01-29T04:50:26.866Z,101375.16
2023-01-29T04:53:50.119Z,101363.63
2023-01-29T04:57:02.780Z,101369.81
2023-01-29T05:00:13.178Z,101374.28
2023-01-29T05:03:17.423Z,101369.81
2023-01-29T05:06:21.537Z,101358.34
2023-01-29T05:09:26.270Z,101351.25
2023-01-29T05:12:31.387Z,101360.09
2023-01-29T05:15:39.394Z,101353.03
2023-01-29T05:18:43.077Z,101356.56
2023-01-29T05:21:49.438Z,101357.44
2023-01-29T05:24:53.113Z,101348.59
2023-01-29T05:28:14.131Z,101348.59
2023-01-29T05:31:17.575Z,101360.97
2023-01-29T05:34:21.371Z,101327.34
2023-01-29T05:37:24.584Z,101351.25
2023-01-29T05:40:28.522Z,101348.59
2023-01-29T05:43:31.729Z,101359.22
2023-01-29T05:46:35.108Z,101353.88
2023-01-29T05:49:38.859Z,101361.88
2023-01-29T05:52:42.929Z,101366.28
2023-01-29T05:55:48.014Z,101369.84
2023-01-29T05:58:51.770Z,101382.25
2023-01-29T06:01:55.013Z,101382.25
2023-01-29T06:04:58.728Z,101376.91
2023-01-29T06:08:01.899Z,101378.72
2023-01-29T06:11:12.402Z,101380.47
2023-01-29T06:14:15.519Z,101392.00
2023-01-29T06:17:19.030Z,101392.87
2023-01-29T06:20:23.079Z,101386.66
2023-01-29T06:23:26.549Z,101399.06
2023-01-29T06:26:30.654Z,101390.22
2023-01-29T06:29:36.651Z,101390.22
2023-01-29T06:32:41.422Z,101412.38
2023-01-29T06:35:44.944Z,101414.13
2023-01-29T06:38:48.438Z,101415.00
2023-01-29T06:41:52.183Z,101414.09
2023-01-29T06:44:56.596Z,101419.44
2023-01-29T06:48:01.582Z,101422.97
2023-01-29T06:51:06.749Z,101431.81
2023-01-29T06:54:11.336Z,101428.28
2023-01-29T06:57:14.541Z,101422.94
2023-01-29T07:00:19.248Z,101427.34
2023-01-29T07:03:22.534Z,101434.47
2023-01-29T07:06:29.593Z,101424.66
2023-01-29T07:09:33.028Z,101410.50
2023-01-29T07:12:37.089Z,101405.19
2023-01-29T07:15:40.590Z,101406.06
2023-01-29T07:18:44.009Z,101398.97
2023-01-29T07:21:47.151Z,101408.72
2023-01-29T07:24:50.674Z,101406.94
2023-01-29T07:27:54.031Z,101398.06
2023-01-29T07:30:59.448Z,101392.75
2023-01-29T07:34:03.247Z,101390.06
2023-01-29T07:37:08.119Z,101389.13
2023-01-29T07:40:12.131Z,101388.22
2023-01-29T07:43:16.934Z,101389.97
2023-01-29T07:46:21.095Z,101390.88
2023-01-29T07:49:24.802Z,101387.28
2023-01-29T07:52:30.822Z,101393.47
2023-01-29T07:55:34.503Z,101393.44
2023-01-29T07:58:37.763Z,101388.97
2023-01-29T08:01:41.133Z,101396.91
2023-01-29T08:04:44.627Z,101398.69
2023-01-29T08:08:05.822Z,101401.31
2023-01-29T08:11:10.453Z,101401.31
2023-01-29T08:14:13.563Z,101412.81
2023-01-29T08:17:17.865Z,101411.91
2023-01-29T08:20:22.566Z,101416.37
2023-01-29T08:23:27.448Z,101411.06
2023-01-29T08:26:30.920Z,101407.50
2023-01-29T08:29:34.403Z,101411.09
2023-01-29T08:32:38.214Z,101404.91
2023-01-29T08:35:41.690Z,101404.84
2023-01-29T08:38:44.751Z,101413.75
2023-01-29T08:41:48.086Z,101423.50
2023-01-29T08:44:51.503Z,101436.78
2023-01-29T08:47:55.070Z,101443.03
2023-01-29T08:50:59.825Z,101448.31
2023-01-29T08:54:03.381Z,101441.28
2023-01-29T08:57:08.613Z,101451.06
2023-01-29T09:00:19.861Z,101451.06
2023-01-29T09:03:23.498Z,101436.87
2023-01-29T09:06:26.845Z,101450.16
2023-01-29T09:09:30.349Z,101452.81
2023-01-29T09:12:34.144Z,101451.00
2023-01-29T09:15:37.708Z,101450.09
2023-01-29T09:18:40.997Z,101450.91
2023-01-29T09:21:45.205Z,101444.69
2023-01-29T09:24:48.641Z,101442.00
2023-01-29T09:27:52.036Z,101440.19
2023-01-29T09:30:55.827Z,101443.69
2023-01-29T09:33:59.399Z,101449.88
2023-01-29T09:37:02.786Z,101450.78
2023-01-29T09:40:08.093Z,101455.22
2023-01-29T09:43:19.808Z,101455.09
2023-01-29T09:46:38.728Z,101453.31
2023-01-29T09:49:47.407Z,101448.88
2023-01-29T09:53:07.519Z,101450.63
2023-01-29T09:56:21.695Z,101449.75
2023-01-29T09:59:28.099Z,101461.34
2023-01-29T10:02:37.252Z,101464.84
2023-01-29T10:05:55.671Z,101467.44
2023-01-29T10:08:59.310Z,101463.87
2023-01-29T10:12:13.284Z,101471.16
2023-01-29T10:15:34.987Z,101469.41
2023-01-29T10:19:21.857Z,101474.75
2023-01-29T10:22:27.815Z,101469.50
2023-01-29T10:25:35.904Z,101466.75
2023-01-29T10:28:48.476Z,101469.47
2023-01-29T10:31:57.302Z,101463.31
2023-01-29T10:35:22.174Z,101469.53
2023-01-29T10:38:38.836Z,101466.00
2023-01-29T10:42:20.084Z,101459.78
2023-01-29T10:45:44.709Z,101461.50
2023-01-29T10:49:24.922Z,101454.47
2023-01-29T10:52:44.547Z,101457.16
2023-01-29T10:56:20.989Z,101443.84
2023-01-29T10:59:28.976Z,101414.69
2023-01-29T11:02:34.076Z,101439.38
2023-01-29T11:06:16.537Z,101434.97
2023-01-29T11:09:39.892Z,101434.84
2023-01-29T11:12:44.864Z,101432.28
2023-01-29T11:15:53.044Z,101408.28
2023-01-29T11:18:59.674Z,101399.34
2023-01-29T11:22:04.587Z,101401.91
2023-01-29T11:25:16.283Z,101395.81
2023-01-29T11:28:43.307Z,101396.78
2023-01-29T11:31:47.835Z,101389.63
2023-01-29T11:35:03.801Z,101367.53
2023-01-29T11:38:30.453Z,101371.91
2023-01-29T11:41:44.004Z,101361.22
2023-01-29T11:44:47.867Z,101360.25
2023-01-29T11:47:55.456Z,101357.59
2023-01-29T11:51:01.206Z,101354.09
2023-01-29T11:54:06.644Z,101353.06
2023-01-29T11:57:38.905Z,101361.03
2023-01-29T12:00:48.304Z,101355.87
2023-01-29T12:03:54.076Z,101356.78
2023-01-29T12:06:58.894Z,101351.56
2023-01-29T12:10:03.616Z,101352.44
2023-01-29T12:13:09.933Z,101349.78
2023-01-29T12:16:36.968Z,101348.87
2023-01-29T12:19:49.246Z,101353.22
2023-01-29T12:23:11.906Z,101342.63
2023-01-29T12:26:22.192Z,101351.47
2023-01-29T12:29:45.883Z,101347.91
2023-01-29T12:33:08.834Z,101356.88
2023-01-29T12:36:47.233Z,101355.06
2023-01-29T12:39:53.574Z,101345.41
2023-01-29T12:43:04.993Z,101339.13
2023-01-29T12:46:24.653Z,101338.19
2023-01-29T12:49:34.364Z,101340.88
2023-01-29T12:52:50.975Z,101339.94
2023-01-29T12:56:02.829Z,101330.19
2023-01-29T12:59:22.121Z,101316.09
2023-01-29T13:02:30.098Z,101313.50
2023-01-29T13:05:54.650Z,101303.63
2023-01-29T13:09:03.651Z,101300.91
2023-01-29T13:12:18.820Z,101294.59
2023-01-29T13:15:29.044Z,101297.16
2023-01-29T13:18:55.886Z,101287.22
2023-01-29T13:22:03.362Z,101273.84
2023-01-29T13:25:16.296Z,101267.66
2023-01-29T13:28:23.272Z,101272.09
2023-01-29T13:31:49.084Z,101277.75
2023-01-29T13:34:57.356Z,101281.25
2023-01-29T13:38:01.030Z,101291.13
2023-01-29T13:41:12.891Z,101296.38
2023-01-29T13:44:27.479Z,101294.00
2023-01-29T13:47:33.706Z,101280.75
2023-01-29T13:50:43.375Z,101292.25
2023-01-29T13:54:01.974Z,101273.66
2023-01-29T13:57:06.109Z,101268.28
2023-01-29T14:00:34.538Z,101280.75
2023-01-29T14:04:02.236Z,101281.66
2023-01-29T14:07:45.336Z,101283.41
2023-01-29T14:11:17.816Z,101283.53
2023-01-29T14:14:50.759Z,101293.28
2023-01-29T14:18:09.005Z,101288.78
2023-01-29T14:21:42.007Z,101295.91
2023-01-29T14:24:46.077Z,101288.91
2023-01-29T14:27:50.232Z,101298.72
2023-01-29T14:30:57.117Z,101297.00
2023-01-29T14:34:04.472Z,101294.25
2023-01-29T14:37:15.474Z,101294.97
2023-01-29T14:40:19.372Z,101293.00
2023-01-29T14:43:23.079Z,101286.94
2023-01-29T14:46:36.129Z,101288.78
2023-01-29T14:49:55.807Z,101305.66
2023-01-29T14:53:13.803Z,101312.88
2023-01-29T14:56:27.599Z,101297.94
2023-01-29T14:59:32.859Z,101308.59
2023-01-29T15:02:43.331Z,101304.16
2023-01-29T15:05:52.272Z,101299.78
2023-01-29T15:09:08.079Z,101306.03
2023-01-29T15:12:34.081Z,101298.09
2023-01-29T15:15:46.282Z,101298.13
2023-01-29T15:19:00.555Z,101298.16
2023-01-29T15:22:19.659Z,101297.28
2023-01-29T15:25:26.483Z,101294.63
2023-01-29T15:28:34.079Z,101286.69
2023-01-29T15:31:43.038Z,101293.78
2023-01-29T15:34:48.769Z,101294.66
2023-01-29T15:38:17.098Z,101297.34
2023-01-29T15:41:24.349Z,101294.69
2023-01-29T15:44:27.980Z,101290.25
2023-01-29T15:47:33.381Z,101313.22
2023-01-29T15:50:41.904Z,101314.09
2023-01-29T15:53:53.925Z,101312.28
2023-01-29T15:56:59.744Z,101319.38
2023-01-29T16:00:06.290Z,101317.53
2023-01-29T16:03:16.238Z,101322.75
2023-01-29T16:06:24.268Z,101320.84
2023-01-29T16:09:29.988Z,101312.75
2023-01-29T16:12:39.038Z,101314.44
2023-01-29T16:15:57.008Z,101324.06
2023-01-29T16:19:01.679Z,101325.88
2023-01-29T16:22:09.802Z,101317.97
2023-01-29T16:25:16.815Z,101327.75
2023-01-29T16:28:23.061Z,101326.75
2023-01-29T16:31:33.876Z,101306.31
2023-01-29T16:34:45.824Z,101337.31
2023-01-29T16:37:52.476Z,101342.63
2023-01-29T16:41:21.908Z,101317.81
2023-01-29T16:44:36.690Z,101348.87
2023-01-29T16:47:42.077Z,101358.72
2023-01-29T16:50:55.133Z,101353.53
2023-01-29T16:54:18.939Z,101353.66
2023-01-29T16:57:27.229Z,101349.22
2023-01-29T17:00:32.928Z,101333.31
2023-01-29T17:03:40.242Z,101351.87
2023-01-29T17:06:49.568Z,101349.13
2023-01-29T17:10:00.931Z,101348.28
2023-01-29T17:13:11.107Z,101350.16
2023-01-29T17:16:21.302Z,101340.47
2023-01-29T17:19:26.469Z,101339.53
2023-01-29T17:22:33.867Z,101328.03
2023-01-29T17:25:38.906Z,101324.38
2023-01-29T17:28:45.575Z,101311.94
2023-01-29T17:31:53.304Z,101316.38
2023-01-29T17:35:00.673Z,101311.91
2023-01-29T17:38:11.499Z,101314.59
2023-01-29T17:41:31.068Z,101303.97
2023-01-29T17:44:35.958Z,101307.47
2023-01-29T17:47:41.600Z,101299.47
2023-01-29T17:50:50.468Z,101299.44
2023-01-29T17:53:55.809Z,101293.12
2023-01-29T17:57:00.909Z,101291.19
2023-01-29T18:00:26.751Z,101299.91
2023-01-29T18:03:32.519Z,101294.50
2023-01-29T18:06:38.788Z,101298.00
2023-01-29T18:09:45.952Z,101302.34
2023-01-29T18:12:52.948Z,101303.12
2023-01-29T18:16:00.757Z,101292.50
2023-01-29T18:19:16.431Z,101287.22
2023-01-29T18:22:21.994Z,101286.41
2023-01-29T18:25:26.907Z,101283.78
2023-01-29T18:28:32.103Z,101278.41
2023-01-29T18:31:37.737Z,101278.50
2023-01-29T18:34:43.418Z,101274.97
2023-01-29T18:37:48.707Z,101269.69
2023-01-29T18:40:56.546Z,101282.75
2023-01-29T18:44:00.569Z,101284.44
2023-01-29T18:47:07.976Z,101277.25
2023-01-29T18:50:13.294Z,101285.19
2023-01-29T18:53:22.202Z,101287.75
2023-01-29T18:56:26.852Z,101275.19
2023-01-29T18:59:32.895Z,101290.28
2023-01-29T19:02:38.997Z,101268.16
2023-01-29T19:05:44.981Z,101282.38
2023-01-29T19:08:50.077Z,101283.31
2023-01-29T19:11:57.277Z,101282.31
2023-01-29T19:15:02.502Z,101289.31
2023-01-29T19:18:08.462Z,101291.03
2023-01-29T19:21:15.649Z,101283.06
2023-01-29T19:24:24.236Z,101287.44
2023-01-29T19:27:31.098Z,101278.81
2023-01-29T19:30:36.611Z,101279.78
2023-01-29T19:33:42.094Z,101274.63
2023-01-29T19:36:48.117Z,101269.25
2023-01-29T19:39:54.483Z,101267.47
2023-01-29T19:43:00.331Z,101259.44
2023-01-29T19:46:05.037Z,101265.59
2023-01-29T19:49:10.836Z,101265.62
2023-01-29T19:52:52.275Z,101262.00
2023-01-29T19:55:59.567Z,101273.44
2023-01-29T19:59:09.116Z,101270.75
2023-01-29T20:02:16.049Z,101279.56
2023-01-29T20:05:27.619Z,101283.19
2023-01-29T20:08:33.508Z,101271.78
2023-01-29T20:11:43.053Z,101265.75
2023-01-29T20:14:53.562Z,101247.13
2023-01-29T20:17:59.719Z,101263.13
2023-01-29T20:21:11.620Z,101240.41
2023-01-29T20:24:19.434Z,101243.06
2023-01-29T20:27:24.871Z,101262.16
2023-01-29T20:30:31.739Z,101252.34
2023-01-29T20:33:39.642Z,101239.81
2023-01-29T20:36:48.232Z,101238.16
2023-01-29T20:39:55.468Z,101201.69
2023-01-29T20:43:01.893Z,101221.19
2023-01-29T20:46:06.415Z,101238.88
2023-01-29T20:49:12.972Z,101221.00
2023-01-29T20:52:18.149Z,101249.28
2023-01-29T20:55:23.850Z,101248.47
2023-01-29T20:58:29.383Z,101242.16
2023-01-29T21:01:34.919Z,101260.03
2023-01-29T21:04:40.411Z,101260.19
2023-01-29T21:07:45.708Z,101268.97
2023-01-29T21:10:54.895Z,101257.44
2023-01-29T21:14:00.565Z,101286.50
2023-01-29T21:17:06.285Z,101286.66
2023-01-29T21:20:12.367Z,101289.50
2023-01-29T21:23:16.799Z,101274.59
2023-01-29T21:26:21.063Z,101284.34
2023-01-29T21:29:29.264Z,101267.63
2023-01-29T21:32:35.150Z,101255.34
2023-01-29T21:35:39.363Z,101219.81
2023-01-29T21:38:45.219Z,101263.97
2023-01-29T21:42:10.267Z,101277.06
2023-01-29T21:45:15.325Z,101274.25
2023-01-29T21:48:19.242Z,101275.91
2023-01-29T21:51:23.905Z,101274.94
2023-01-29T21:54:31.107Z,101262.59
2023-01-29T21:57:35.265Z,101270.38
2023-01-29T22:00:38.786Z,101268.50
2023-01-29T22:03:42.271Z,101263.22
2023-01-29T22:06:45.504Z,101257.19
2023-01-29T22:09:49.964Z,101251.03
2023-01-29T22:12:53.231Z,101248.44
2023-01-29T22:15:56.757Z,101244.94
2023-01-29T22:19:00.136Z,101237.13
2023-01-29T22:22:04.125Z,101232.72
2023-01-29T22:25:07.859Z,101225.72
2023-01-29T22:28:11.527Z,101221.38
2023-01-29T22:31:15.287Z,101211.66
2023-01-29T22:34:18.663Z,101197.53
2023-01-29T22:37:22.271Z,101212.59
2023-01-29T22:40:26.479Z,101206.44
2023-01-29T22:43:29.753Z,101200.34
2023-01-29T22:46:33.323Z,101197.69
2023-01-29T22:49:36.842Z,101184.53
2023-01-29T22:52:42.980Z,101193.41
2023-01-29T22:55:54.931Z,101185.41
2023-01-29T22:59:00.709Z,101187.97
2023-01-29T23:02:04.779Z,101189.66
2023-01-29T23:05:08.559Z,101169.31
2023-01-29T23:08:11.691Z,101186.09
2023-01-29T23:11:19.964Z,101186.88
2023-01-29T23:14:23.087Z,101179.72
2023-01-29T23:17:26.443Z,101177.06
2023-01-29T23:20:29.679Z,101177.03
2023-01-29T23:23:35.327Z,101173.28
2023-01-29T23:26:57.298Z,101175.78
2023-01-29T23:30:01.769Z,101161.56
2023-01-29T23:33:07.445Z,101164.09
2023-01-29T23:36:11.091Z,101153.38
2023-01-29T23:39:15.017Z,101151.50
2023-01-29T23:42:18.706Z,101147.97
2023-01-29T23:45:22.434Z,101155.78
2023-01-29T23:48:26.303Z,101154.81
2023-01-29T23:51:29.562Z,101160.13
2023-01-29T23:54:33.172Z,101148.66
2023-01-29T23:57:36.357Z,101136.34
